createdAt,value
2018-11-29T00:02:06.521Z,308.50
2018-11-29T00:04:52.953Z,302.50
2018-11-29T00:07:40.093Z,322.25
2018-11-29T00:10:11.757Z,328.50
2018-11-29T00:12:43.690Z,339.25
2018-11-29T00:15:16.894Z,332.25
2018-11-29T00:17:48.658Z,318.25
2018-11-29T00:20:21.071Z,320.00
2018-11-29T00:22:53.404Z,305.50
2018-11-29T00:25:25.430Z,327.50
2018-11-29T00:27:57.060Z,322.00
2018-11-29T00:30:29.712Z,310.75
2018-11-29T00:33:01.777Z,317.25
2018-11-29T00:35:33.608Z,333.50
2018-11-29T00:38:05.553Z,317.50
2018-11-29T00:40:37.307Z,313.00
2018-11-29T00:43:10.682Z,312.75
2018-11-29T00:45:42.835Z,333.50
2018-11-29T00:48:15.696Z,330.50
2018-11-29T00:50:47.576Z,329.50
2018-11-29T00:53:19.521Z,310.00
2018-11-29T00:55:51.063Z,329.75
2018-11-29T00:58:22.612Z,310.50
2018-11-29T01:00:54.504Z,334.50
2018-11-29T01:03:26.251Z,321.25
2018-11-29T01:05:58.196Z,347.75
2018-11-29T01:08:30.427Z,387.75
2018-11-29T01:11:02.644Z,369.25
2018-11-29T01:13:34.535Z,353.25
2018-11-29T01:16:06.804Z,376.25
2018-11-29T01:18:38.666Z,349.00
2018-11-29T01:21:10.381Z,368.25
2018-11-29T01:23:42.117Z,332.50
2018-11-29T01:26:13.862Z,389.75
2018-11-29T01:28:45.680Z,355.75
2018-11-29T01:31:17.788Z,372.75
2018-11-29T01:33:49.503Z,356.50
2018-11-29T01:36:21.244Z,363.00
2018-11-29T01:38:53.067Z,353.50
2018-11-29T01:41:25.066Z,317.75
2018-11-29T01:43:56.818Z,326.25
2018-11-29T01:46:29.456Z,345.75
2018-11-29T01:49:01.550Z,309.00
2018-11-29T01:51:33.909Z,333.50
2018-11-29T01:54:05.744Z,318.50
2018-11-29T01:56:37.844Z,350.25
2018-11-29T01:59:10.021Z,326.75
2018-11-29T02:01:42.660Z,346.75
2018-11-29T02:04:14.625Z,349.75
2018-11-29T02:06:46.714Z,373.75
2018-11-29T02:09:18.452Z,348.75
2018-11-29T02:11:50.844Z,355.75
2018-11-29T02:14:23.128Z,365.50
2018-11-29T02:16:55.466Z,345.00
2018-11-29T02:19:27.118Z,353.75
2018-11-29T02:21:59.044Z,363.00
2018-11-29T02:24:30.934Z,371.75
2018-11-29T02:27:02.846Z,345.00
2018-11-29T02:29:34.796Z,344.50
2018-11-29T02:32:06.787Z,388.00
2018-11-29T02:34:38.553Z,389.25
2018-11-29T02:37:09.959Z,372.50
2018-11-29T02:39:41.771Z,400.50
2018-11-29T02:42:13.844Z,369.00
2018-11-29T02:44:46.029Z,393.50
2018-11-29T02:47:18.223Z,422.50
2018-11-29T02:49:50.329Z,386.00
2018-11-29T02:52:22.571Z,382.00
2018-11-29T02:54:54.504Z,398.25
2018-11-29T02:57:26.233Z,433.75
2018-11-29T02:59:59.318Z,448.25
2018-11-29T03:02:31.012Z,398.00
2018-11-29T03:05:03.003Z,405.75
2018-11-29T03:07:37.633Z,414.25
2018-11-29T03:10:11.054Z,405.75
2018-11-29T03:12:45.758Z,372.25
2018-11-29T03:15:17.646Z,404.25
2018-11-29T03:17:49.873Z,394.00
2018-11-29T03:20:21.692Z,416.25
2018-11-29T03:22:54.087Z,372.75
2018-11-29T03:25:26.349Z,379.75
2018-11-29T03:27:58.291Z,402.50
2018-11-29T03:30:30.147Z,368.00
2018-11-29T03:33:02.408Z,352.50
2018-11-29T03:35:34.340Z,361.25
2018-11-29T03:38:06.127Z,354.00
2018-11-29T03:40:38.060Z,366.50
2018-11-29T03:43:09.810Z,404.00
2018-11-29T03:45:41.402Z,377.25
2018-11-29T03:48:13.782Z,388.50
2018-11-29T03:50:45.380Z,355.50
2018-11-29T03:53:16.931Z,375.00
2018-11-29T03:55:48.393Z,372.00
2018-11-29T03:58:20.098Z,374.25
2018-11-29T04:00:51.681Z,369.50
2018-11-29T04:03:23.421Z,330.50
2018-11-29T04:05:54.929Z,348.00
2018-11-29T04:08:26.736Z,328.00
2018-11-29T04:10:58.959Z,357.00
2018-11-29T04:13:30.990Z,359.75
2018-11-29T04:16:02.735Z,397.25
2018-11-29T04:18:35.030Z,345.75
2018-11-29T04:21:06.930Z,413.00
2018-11-29T04:23:38.895Z,377.00
2018-11-29T04:26:10.761Z,390.50
2018-11-29T04:28:42.741Z,408.25
2018-11-29T04:31:15.951Z,401.75
2018-11-29T04:33:49.018Z,402.00
2018-11-29T04:36:20.858Z,409.25
2018-11-29T04:38:52.561Z,406.50
2018-11-29T04:41:24.191Z,417.00
2018-11-29T04:43:55.816Z,409.75
2018-11-29T04:46:49.509Z,407.00
2018-11-29T04:49:23.091Z,385.50
2018-11-29T04:51:58.278Z,398.00
2018-11-29T04:54:29.958Z,364.50
2018-11-29T04:57:01.613Z,352.50
2018-11-29T04:59:36.401Z,341.50
2018-11-29T05:02:08.773Z,342.75
2018-11-29T05:04:40.374Z,315.50
2018-11-29T05:07:12.958Z,333.25
2018-11-29T05:09:44.528Z,350.00
2018-11-29T05:12:18.739Z,328.25
2018-11-29T05:14:51.372Z,354.75
2018-11-29T05:17:23.050Z,343.25
2018-11-29T05:19:56.261Z,362.75
2018-11-29T05:22:27.755Z,368.00
2018-11-29T05:25:02.240Z,341.50
2018-11-29T05:27:38.713Z,364.00
2018-11-29T05:30:15.557Z,349.25
2018-11-29T05:32:47.111Z,350.25
2018-11-29T05:35:18.803Z,336.75
2018-11-29T05:37:50.349Z,350.00
2018-11-29T05:40:27.602Z,340.75
2018-11-29T05:43:00.447Z,349.50
2018-11-29T05:45:32.042Z,365.75
2018-11-29T05:48:03.660Z,372.50
2018-11-29T05:50:36.077Z,338.25
2018-11-29T05:53:09.603Z,335.75
2018-11-29T05:55:41.212Z,306.00
2018-11-29T05:58:13.074Z,289.00
2018-11-29T06:00:46.351Z,304.75
2018-11-29T06:03:18.839Z,318.00
2018-11-29T06:05:50.584Z,288.75
2018-11-29T06:08:22.057Z,295.00
2018-11-29T06:10:55.482Z,278.50
2018-11-29T06:13:27.457Z,282.50
2018-11-29T06:16:01.091Z,281.50
2018-11-29T06:18:32.588Z,259.00
2018-11-29T06:21:04.855Z,244.75
2018-11-29T06:23:37.452Z,247.75
2018-11-29T06:26:10.395Z,237.25
2018-11-29T06:28:42.126Z,242.75
2018-11-29T06:31:16.962Z,263.25
2018-11-29T06:33:48.504Z,230.60
2018-11-29T06:36:25.082Z,261.20
2018-11-29T06:38:56.844Z,239.50
2018-11-29T06:41:28.689Z,246.50
2018-11-29T06:44:05.164Z,247.00
2018-11-29T06:46:41.641Z,231.60
2018-11-29T06:49:13.335Z,239.40
2018-11-29T06:51:46.246Z,227.80
2018-11-29T06:54:18.119Z,235.40
2018-11-29T06:56:52.682Z,226.80
2018-11-29T06:59:24.560Z,212.60
2018-11-29T07:02:00.709Z,213.60
2018-11-29T07:04:33.636Z,234.20
2018-11-29T07:07:59.518Z,232.60
2018-11-29T07:10:37.467Z,240.25
2018-11-29T07:13:09.927Z,243.20
2018-11-29T07:15:41.568Z,224.80
2018-11-29T07:18:13.273Z,212.40
2018-11-29T07:20:49.348Z,210.80
2018-11-29T07:23:21.735Z,211.40
2018-11-29T07:25:53.643Z,227.60
2018-11-29T07:28:29.795Z,202.40
2018-11-29T07:31:09.143Z,228.00
2018-11-29T07:33:46.850Z,221.80
2018-11-29T07:36:18.451Z,231.00
2018-11-29T07:38:55.032Z,232.60
2018-11-29T07:41:26.706Z,214.20
2018-11-29T07:43:58.385Z,214.40
2018-11-29T07:46:30.756Z,194.40
2018-11-29T07:49:03.881Z,226.00
2018-11-29T07:51:35.596Z,232.20
2018-11-29T07:54:09.654Z,213.20
2018-11-29T07:56:42.701Z,208.00
2018-11-29T07:59:14.501Z,206.20
2018-11-29T08:01:46.052Z,234.00
2018-11-29T08:04:17.763Z,217.40
2018-11-29T08:06:49.375Z,222.40
2018-11-29T08:09:21.119Z,203.20
2018-11-29T08:11:52.662Z,204.00
2018-11-29T08:14:25.373Z,195.40
2018-11-29T08:16:56.976Z,196.60
2018-11-29T08:19:28.813Z,219.00
2018-11-29T08:22:00.615Z,237.40
2018-11-29T08:24:34.033Z,205.20
2018-11-29T08:27:12.931Z,211.60
2018-11-29T08:29:45.401Z,227.60
2018-11-29T08:32:17.051Z,237.00
2018-11-29T08:34:48.703Z,205.60
2018-11-29T08:37:23.919Z,233.00
2018-11-29T08:39:55.728Z,208.20
2018-11-29T08:42:27.867Z,258.60
2018-11-29T08:44:59.491Z,304.50
2018-11-29T08:47:31.258Z,272.25
2018-11-29T08:50:07.769Z,232.00
2018-11-29T08:52:40.806Z,201.60
2018-11-29T08:55:20.303Z,237.60
2018-11-29T08:57:52.925Z,206.80
2018-11-29T09:00:27.160Z,227.80
2018-11-29T09:02:59.089Z,228.20
2018-11-29T09:05:35.506Z,214.60
2018-11-29T09:08:08.266Z,234.20
2018-11-29T09:10:40.809Z,238.00
2018-11-29T09:13:16.611Z,235.60
2018-11-29T09:15:48.228Z,233.40
2018-11-29T09:18:19.958Z,226.60
2018-11-29T09:20:51.578Z,248.40
2018-11-29T09:23:26.843Z,241.20
2018-11-29T09:25:59.486Z,248.60
2018-11-29T09:28:32.670Z,231.20
2018-11-29T09:31:04.470Z,240.60
2018-11-29T09:33:36.672Z,223.00
2018-11-29T09:36:08.934Z,232.00
2018-11-29T09:38:40.715Z,218.00
2018-11-29T09:41:12.364Z,222.20
2018-11-29T09:43:44.606Z,243.80
2018-11-29T09:46:21.254Z,216.00
2018-11-29T09:48:55.077Z,213.40
2018-11-29T09:51:27.749Z,214.60
2018-11-29T09:53:59.671Z,212.60
2018-11-29T09:56:31.794Z,213.20
2018-11-29T09:59:03.764Z,218.60
2018-11-29T10:01:35.497Z,227.20
2018-11-29T10:04:07.584Z,221.40
2018-11-29T10:06:40.495Z,232.40
2018-11-29T10:09:14.186Z,218.80
2018-11-29T10:11:48.063Z,233.00
2018-11-29T10:14:19.800Z,207.00
2018-11-29T10:16:51.605Z,201.00
2018-11-29T10:19:23.233Z,213.20
2018-11-29T10:21:56.047Z,202.40
2018-11-29T10:24:27.415Z,202.00
2018-11-29T10:26:59.559Z,215.00
2018-11-29T10:29:34.875Z,208.80
2018-11-29T10:32:06.613Z,228.00
2018-11-29T10:34:38.191Z,211.60
2018-11-29T10:37:10.765Z,209.60
2018-11-29T10:39:42.616Z,231.00
2018-11-29T10:42:14.655Z,239.00
2018-11-29T10:44:46.263Z,252.20
2018-11-29T10:47:19.942Z,223.20
2018-11-29T10:49:54.676Z,242.20
2018-11-29T10:52:29.439Z,231.00
2018-11-29T10:55:02.057Z,220.60
2018-11-29T10:57:38.016Z,231.60
2018-11-29T11:00:18.958Z,225.20
2018-11-29T11:02:57.452Z,200.80
2018-11-29T11:05:29.008Z,222.60
2018-11-29T11:08:07.889Z,199.60
2018-11-29T11:10:33.884Z,218.60
2018-11-29T11:13:10.127Z,219.20
2018-11-29T11:15:42.047Z,208.00
2018-11-29T11:18:15.805Z,212.40
2018-11-29T11:20:49.432Z,214.40
2018-11-29T11:23:23.148Z,192.00
2018-11-29T11:25:54.898Z,199.60
2018-11-29T11:28:27.239Z,205.80
2018-11-29T11:31:02.112Z,212.20
2018-11-29T11:33:33.690Z,198.00
2018-11-29T11:36:06.756Z,215.60
2018-11-29T11:38:38.857Z,203.00
2018-11-29T11:41:10.556Z,204.60
2018-11-29T11:43:42.337Z,217.00
2018-11-29T11:46:14.031Z,216.40
2018-11-29T11:48:46.046Z,205.60
2018-11-29T11:51:18.989Z,185.40
2018-11-29T11:53:50.780Z,211.20
2018-11-29T11:56:22.634Z,189.00
2018-11-29T11:59:00.839Z,202.40
2018-11-29T12:01:32.404Z,192.80
2018-11-29T12:04:04.921Z,212.20
2018-11-29T12:06:36.609Z,220.40
2018-11-29T12:09:11.233Z,220.40
2018-11-29T12:11:43.839Z,224.20
2018-11-29T12:14:15.536Z,203.20
2018-11-29T12:16:50.852Z,210.40
2018-11-29T12:19:23.716Z,211.40
2018-11-29T12:21:55.451Z,183.60
2018-11-29T12:24:27.318Z,208.20
2018-11-29T12:26:59.148Z,216.40
2018-11-29T12:29:31.261Z,224.60
2018-11-29T12:32:03.401Z,249.80
2018-11-29T12:34:41.919Z,226.00
2018-11-29T12:37:17.958Z,245.25
2018-11-29T12:39:50.043Z,273.75
2018-11-29T12:42:21.647Z,295.75
2018-11-29T12:44:57.134Z,290.00
2018-11-29T12:47:39.212Z,322.50
2018-11-29T12:50:15.868Z,301.75
2018-11-29T12:52:47.231Z,324.00
2018-11-29T12:55:24.328Z,326.50
2018-11-29T12:58:05.404Z,312.25
2018-11-29T13:00:28.582Z,348.75
2018-11-29T13:03:00.971Z,366.25
2018-11-29T13:05:38.372Z,348.00
2018-11-29T13:08:10.574Z,378.25
2018-11-29T13:10:43.281Z,379.75
2018-11-29T13:13:15.255Z,384.75
2018-11-29T13:15:46.998Z,385.50
2018-11-29T13:18:18.717Z,372.75
2018-11-29T13:20:50.458Z,388.00
2018-11-29T13:23:23.974Z,408.00
2018-11-29T13:25:58.966Z,428.00
2018-11-29T13:28:30.462Z,424.00
2018-11-29T13:31:02.965Z,406.20
2018-11-29T13:33:34.622Z,431.00
2018-11-29T13:36:06.889Z,411.20
2018-11-29T13:38:38.887Z,415.40
2018-11-29T13:41:10.698Z,427.40
2018-11-29T13:43:42.195Z,426.40
2018-11-29T13:46:13.795Z,472.40
2018-11-29T13:48:45.197Z,471.20
2018-11-29T13:51:16.672Z,477.40
2018-11-29T13:53:48.192Z,511.40
2018-11-29T13:56:20.847Z,505.00
2018-11-29T13:58:56.189Z,488.00
2018-11-29T14:01:29.295Z,517.60
2018-11-29T14:04:04.864Z,534.40
2018-11-29T14:06:37.376Z,543.20
2018-11-29T14:09:10.913Z,516.00
2018-11-29T14:11:43.524Z,450.80
2018-11-29T14:14:14.947Z,492.40
2018-11-29T14:16:46.563Z,412.20
2018-11-29T14:19:22.140Z,360.00
2018-11-29T14:21:53.704Z,355.80
2018-11-29T14:24:27.672Z,363.80
2018-11-29T14:26:59.464Z,342.00
2018-11-29T14:29:31.056Z,347.25
2018-11-29T14:32:05.402Z,319.40
2018-11-29T14:34:36.965Z,334.50
2018-11-29T14:37:11.930Z,331.00
2018-11-29T14:39:44.096Z,333.25
2018-11-29T14:42:16.883Z,359.60
2018-11-29T14:44:48.565Z,365.60
2018-11-29T14:47:26.740Z,351.40
2018-11-29T14:49:59.325Z,363.60
2018-11-29T14:52:43.493Z,337.00
2018-11-29T14:55:22.016Z,332.00
2018-11-29T14:57:53.677Z,343.60
2018-11-29T15:03:25.095Z,348.20
2018-11-29T15:05:56.567Z,354.20
2018-11-29T15:08:29.094Z,338.00
2018-11-29T15:11:01.686Z,319.80
2018-11-29T15:13:33.996Z,366.00
2018-11-29T15:16:05.697Z,339.00
2018-11-29T15:18:37.489Z,327.00
2018-11-29T15:21:09.053Z,322.50
2018-11-29T15:23:41.205Z,331.50
2018-11-29T15:26:12.988Z,329.20
2018-11-29T15:28:44.516Z,359.20
2018-11-29T15:31:16.212Z,371.60
2018-11-29T15:33:51.849Z,359.20
2018-11-29T15:36:23.372Z,360.20
2018-11-29T15:38:54.905Z,367.25
2018-11-29T15:41:26.248Z,328.00
2018-11-29T15:43:57.834Z,338.25
2018-11-29T15:46:36.488Z,366.50
2018-11-29T15:49:08.375Z,362.75
2018-11-29T15:51:40.157Z,374.75
2018-11-29T15:54:11.807Z,331.25
2018-11-29T15:56:43.477Z,363.25
2018-11-29T15:59:14.832Z,351.50
2018-11-29T16:01:46.339Z,361.75
2018-11-29T16:04:19.559Z,377.00
2018-11-29T16:06:51.035Z,341.00
2018-11-29T16:09:22.624Z,345.25
2018-11-29T16:11:54.226Z,323.00
2018-11-29T16:14:25.914Z,338.75
2018-11-29T16:16:57.682Z,359.75
2018-11-29T16:19:32.255Z,365.50
2018-11-29T16:22:09.255Z,341.50
2018-11-29T16:24:46.778Z,340.50
2018-11-29T16:27:23.655Z,328.00
2018-11-29T16:29:58.763Z,321.50
2018-11-29T16:32:30.895Z,364.00
2018-11-29T16:35:09.805Z,354.75
2018-11-29T16:37:41.503Z,330.25
2018-11-29T16:40:18.539Z,353.00
2018-11-29T16:42:56.886Z,352.50
2018-11-29T16:45:28.632Z,338.75
2018-11-29T16:48:01.182Z,349.25
2018-11-29T16:50:33.823Z,364.50
2018-11-29T16:53:10.636Z,348.25
2018-11-29T16:55:48.804Z,334.25
2018-11-29T16:58:26.743Z,316.50
2018-11-29T17:01:08.651Z,357.25
2018-11-29T17:03:36.780Z,350.75
2018-11-29T17:06:08.920Z,354.00
2018-11-29T17:08:40.723Z,354.75
2018-11-29T17:11:12.440Z,366.00
2018-11-29T17:13:49.670Z,325.25
2018-11-29T17:16:26.775Z,379.75
2018-11-29T17:19:01.686Z,370.75
2018-11-29T17:21:35.316Z,349.75
2018-11-29T17:24:07.342Z,390.00
2018-11-29T17:26:38.888Z,364.75
2018-11-29T17:29:11.733Z,351.75
2018-11-29T17:31:43.254Z,391.75
2018-11-29T17:34:15.012Z,373.75
2018-11-29T17:36:47.009Z,365.00
2018-11-29T17:39:23.213Z,371.00
2018-11-29T17:41:56.694Z,367.50
2018-11-29T17:44:29.593Z,361.50
2018-11-29T17:47:04.473Z,340.50
2018-11-29T17:49:37.163Z,348.50
2018-11-29T17:52:13.254Z,359.25
2018-11-29T17:54:44.967Z,381.25
2018-11-29T17:57:16.530Z,384.25
2018-11-29T17:59:48.245Z,373.50
2018-11-29T18:02:19.745Z,360.00
2018-11-29T18:04:51.372Z,378.50
2018-11-29T18:07:25.001Z,339.25
2018-11-29T18:09:56.663Z,378.00
2018-11-29T18:12:28.263Z,361.50
2018-11-29T18:15:00.048Z,347.75
2018-11-29T18:17:33.746Z,365.50
2018-11-29T18:20:05.317Z,363.75
2018-11-29T18:22:38.584Z,368.25
2018-11-29T18:25:13.412Z,353.75
2018-11-29T18:27:47.259Z,335.25
2018-11-29T18:30:19.963Z,368.00
2018-11-29T18:32:51.659Z,347.50
2018-11-29T18:35:23.406Z,351.00
2018-11-29T18:37:55.531Z,376.75
2018-11-29T18:40:28.229Z,375.50
2018-11-29T18:43:01.557Z,368.50
2018-11-29T18:45:33.370Z,335.00
2018-11-29T18:48:04.847Z,358.75
2018-11-29T18:50:36.604Z,359.75
2018-11-29T18:53:08.549Z,333.50
2018-11-29T18:55:41.181Z,352.25
2018-11-29T18:58:13.081Z,335.00
2018-11-29T19:00:44.957Z,369.25
2018-11-29T19:03:16.408Z,360.25
2018-11-29T19:05:48.174Z,348.50
2018-11-29T19:08:20.191Z,354.25
2018-11-29T19:10:52.839Z,339.00
2018-11-29T19:13:24.356Z,365.00
2018-11-29T19:15:56.063Z,334.00
2018-11-29T19:18:27.675Z,346.50
2018-11-29T19:20:59.234Z,364.75
2018-11-29T19:23:30.715Z,340.75
2018-11-29T19:26:02.920Z,333.75
2018-11-29T19:28:34.368Z,342.00
2018-11-29T19:31:06.247Z,326.50
2018-11-29T19:33:38.860Z,350.00
2018-11-29T19:36:10.316Z,310.00
2018-11-29T19:38:42.351Z,321.25
2018-11-29T19:41:14.106Z,340.00
2018-11-29T19:43:46.544Z,326.75
2018-11-29T19:46:18.239Z,319.50
2018-11-29T19:48:49.747Z,336.75
2018-11-29T19:51:24.360Z,321.00
2018-11-29T19:53:56.140Z,310.00
2018-11-29T19:56:27.923Z,306.50
2018-11-29T19:58:59.555Z,315.00
2018-11-29T20:01:31.393Z,323.50
2018-11-29T20:04:02.996Z,315.00
2018-11-29T20:06:34.601Z,276.50
2018-11-29T20:09:07.861Z,296.50
2018-11-29T20:11:39.824Z,319.75
2018-11-29T20:14:11.429Z,307.75
2018-11-29T20:16:42.934Z,301.00
2018-11-29T20:19:14.532Z,280.50
2018-11-29T20:21:46.135Z,306.25
2018-11-29T20:24:17.599Z,291.25
2018-11-29T20:26:49.150Z,276.25
2018-11-29T20:29:20.657Z,287.25
2018-11-29T20:31:52.284Z,289.00
2018-11-29T20:34:23.817Z,300.75
2018-11-29T20:36:56.469Z,293.00
2018-11-29T20:39:28.353Z,286.75
2018-11-29T20:42:00.738Z,286.50
2018-11-29T20:44:32.430Z,289.25
2018-11-29T20:47:04.998Z,264.25
2018-11-29T20:49:36.546Z,296.50
2018-11-29T20:52:08.463Z,265.25
2018-11-29T20:54:40.034Z,287.75
2018-11-29T20:57:12.131Z,262.75
2018-11-29T20:59:43.688Z,296.25
2018-11-29T21:02:15.710Z,293.75
2018-11-29T21:04:47.442Z,289.75
2018-11-29T21:07:19.077Z,259.25
2018-11-29T21:14:15.599Z,270.75
2018-11-29T21:16:45.729Z,274.25
2018-11-29T21:19:15.983Z,238.75
2018-11-29T21:21:46.162Z,266.50
2018-11-29T21:24:16.488Z,276.75
2018-11-29T21:26:46.699Z,289.00
2018-11-29T21:29:16.845Z,278.50
2018-11-29T21:31:46.859Z,270.50
2018-11-29T21:34:17.169Z,269.50
2018-11-29T21:36:47.265Z,278.25
2018-11-29T21:39:17.347Z,283.25
2018-11-29T21:41:47.749Z,239.75
2018-11-29T21:44:17.990Z,262.00
2018-11-29T21:46:47.985Z,267.50
2018-11-29T21:49:18.447Z,272.00
2018-11-29T21:51:48.612Z,259.50
2018-11-29T21:54:18.931Z,267.00
2018-11-29T21:56:49.073Z,294.75
2018-11-29T21:59:20.450Z,293.00
2018-11-29T22:01:50.632Z,293.25
2018-11-29T22:04:20.966Z,282.75
2018-11-29T22:06:52.046Z,275.25
2018-11-29T22:09:22.466Z,299.00
2018-11-29T22:11:53.131Z,284.75
2018-11-29T22:14:23.222Z,283.75
2018-11-29T22:16:53.325Z,292.25
2018-11-29T22:19:23.737Z,281.50
2018-11-29T22:21:53.752Z,289.50
2018-11-29T22:24:24.071Z,259.50
2018-11-29T22:26:54.190Z,279.50
2018-11-29T22:29:24.481Z,272.75
2018-11-29T22:31:54.711Z,292.75
2018-11-29T22:34:24.907Z,257.75
2018-11-29T22:36:55.049Z,291.00
2018-11-29T22:39:25.436Z,276.00
2018-11-29T22:41:55.842Z,261.75
2018-11-29T22:44:25.986Z,262.75
2018-11-29T22:46:56.112Z,261.25
2018-11-29T22:49:26.381Z,283.00
2018-11-29T22:51:56.410Z,274.50
2018-11-29T22:54:26.789Z,268.00
2018-11-29T22:56:56.819Z,217.00
2018-11-29T22:59:27.023Z,271.00
2018-11-29T23:01:57.025Z,257.50
2018-11-29T23:04:27.085Z,249.50
2018-11-29T23:06:57.088Z,266.75
2018-11-29T23:09:27.489Z,267.25
2018-11-29T23:11:57.891Z,247.50
2018-11-29T23:14:27.948Z,283.75
2018-11-29T23:16:57.884Z,262.25
2018-11-29T23:19:27.890Z,266.25
2018-11-29T23:21:57.978Z,242.75
2018-11-29T23:24:27.983Z,266.50
2018-11-29T23:26:57.961Z,283.00
2018-11-29T23:29:27.984Z,270.25
2018-11-29T23:31:58.021Z,247.75
2018-11-29T23:34:28.247Z,272.40
2018-11-29T23:36:58.264Z,268.00
2018-11-29T23:39:28.364Z,247.00
2018-11-29T23:41:59.704Z,267.20
2018-11-29T23:44:29.743Z,242.75
2018-11-29T23:47:01.219Z,264.25
2018-11-29T23:49:31.207Z,260.25
2018-11-29T23:52:01.261Z,261.75
2018-11-29T23:54:31.438Z,260.75
2018-11-29T23:57:01.682Z,241.40
2018-11-29T23:59:31.684Z,246.25
